Flight Track Log - Related Links

Times and Time Zones

All times are in EDT time to prevent confusion due to time zone crossing. See the CCA1204 flight status page for this flight to view local times or setup timezone preferences in your user account.

Time Position Orientation Groundspeed Altitude Reporting Facility
EDT Latitude Longitude Course Direction KTS MPH feet Rate Location/Type
Sat 10:48:00 PM 34.6429 108.9947 46° Northeast  Level Estimated
Sat 10:49:00 PM 34.7080 109.0759 46° Northeast  Level Estimated
Sat 10:50:00 PM 34.7731 109.1573 46° Northeast  Level Estimated
Sat 10:51:00 PM 34.8381 109.2389 46° Northeast  Level Estimated
Sat 10:52:00 PM 34.9031 109.3205 46° Northeast  Level Estimated
Sat 10:53:00 PM 34.9680 109.4023 46° Northeast  Level Estimated
Sat 10:54:00 PM 35.0329 109.4843 46° Northeast  Level Estimated
Sat 10:55:00 PM 35.0977 109.5663 46° Northeast  Level Estimated
Sat 10:56:00 PM 35.1624 109.6485 46° Northeast  Level Estimated
Sat 10:57:00 PM 35.2271 109.7308 46° Northeast  Level Estimated
Sat 10:58:00 PM 35.2918 109.8132 46° Northeast  Level Estimated
Sat 10:59:00 PM 35.3564 109.8958 46° Northeast  Level Estimated
Sat 11:00:00 PM 35.4209 109.9785 46° Northeast  Level Estimated
Sat 11:01:00 PM 35.4854 110.0614 46° Northeast  Level Estimated
Sat 11:02:00 PM 35.5498 110.1443 46° Northeast  Level Estimated
Sat 11:03:00 PM 35.6142 110.2274 46° Northeast  Level Estimated
Sat 11:04:00 PM 35.6785 110.3107 46° Northeast  Level Estimated
Sat 11:05:00 PM 35.7427 110.3941 46° Northeast  Level Estimated
Sat 11:06:00 PM 35.8069 110.4776 47° Northeast  Level Estimated
Sat 11:07:00 PM 35.8710 110.5612 47° Northeast  Level Estimated
Sat 11:08:00 PM 35.9351 110.6450 47° Northeast  Level Estimated
Sat 11:09:00 PM 35.9991 110.7289 47° Northeast  Level Estimated
Sat 11:10:00 PM 36.0631 110.8130 47° Northeast  Level Estimated
Sat 11:11:00 PM 36.1270 110.8972 47° Northeast  Level Estimated
Sat 11:12:00 PM 36.1908 110.9815 47° Northeast  Level Estimated
Sat 11:13:00 PM 36.2546 111.0660 47° Northeast  Level Estimated
Sat 11:14:00 PM 36.3183 111.1506 47° Northeast  Level Estimated
Sat 11:15:00 PM 36.3820 111.2353 47° Northeast  Level Estimated
Sat 11:16:00 PM 36.4456 111.3202 47° Northeast  Level Estimated
Sat 11:17:00 PM 36.5091 111.4052 47° Northeast  Level Estimated
Sat 11:18:00 PM 36.5726 111.4904 47° Northeast  Level Estimated
Sat 11:19:00 PM 36.6360 111.5757 47° Northeast  Level Estimated
Sat 11:20:00 PM 36.6994 111.6611 47° Northeast  Level Estimated
Sat 11:21:00 PM 36.7627 111.7467 47° Northeast  Level Estimated
Sat 11:22:00 PM 36.8259 111.8324 47° Northeast  Level Estimated
Sat 11:23:00 PM 36.8891 111.9183 47° Northeast  Level Estimated
Sat 11:24:00 PM 36.9522 112.0043 47° Northeast  Level Estimated
Sat 11:25:00 PM 37.0153 112.0904 47° Northeast  Level Estimated
Sat 11:26:00 PM 37.0783 112.1767 48° Northeast  Level Estimated
Sat 11:27:00 PM 37.1412 112.2631 48° Northeast  Level Estimated
Sat 11:28:00 PM 37.2040 112.3497 48° Northeast  Level Estimated
Sat 11:29:00 PM 37.2668 112.4364 48° Northeast  Level Estimated
Sat 11:30:00 PM 37.3296 112.5233 48° Northeast  Level Estimated
Sat 11:31:00 PM 37.3923 112.6103 48° Northeast  Level Estimated
Sat 11:32:00 PM 37.4549 112.6975 48° Northeast  Level Estimated
Sat 11:33:00 PM 37.5174 112.7848 48° Northeast  Level Estimated
Sat 11:34:00 PM 37.5799 112.8722 48° Northeast  Level Estimated
Sat 11:35:00 PM 37.6423 112.9598 48° Northeast  Level Estimated
Sat 11:36:00 PM 37.7047 113.0476 48° Northeast  Level Estimated
Sat 11:37:00 PM 37.7669 113.1355 48° Northeast  Level Estimated
Sat 11:38:00 PM 37.8292 113.2235 48° Northeast  Level Estimated
Sat 11:39:00 PM 37.8913 113.3117 48° Northeast  Level Estimated
Sat 11:40:00 PM 37.9534 113.4000 48° Northeast  Level Estimated
Sat 11:41:00 PM 38.0154 113.4885 48° Northeast  Level Estimated
Sat 11:42:00 PM 38.0774 113.5771 48° Northeast  Level Estimated
Sat 11:43:00 PM 38.1393 113.6659 48° Northeast  Level Estimated
Sat 11:44:00 PM 38.2011 113.7549 48° Northeast  Level Estimated
Sat 11:45:00 PM 38.2629 113.8440 49° Northeast  Level Estimated
Sat 11:46:00 PM 38.3245 113.9332 49° Northeast  Level Estimated
Sat 11:47:00 PM 38.3862 114.0226 49° Northeast  Level Estimated
Sat 11:48:00 PM 38.4477 114.1121 49° Northeast  Level Estimated
Sat 11:49:00 PM 38.5092 114.2018 49° Northeast  Level Estimated
Sat 11:50:00 PM 38.5706 114.2917 49° Northeast  Level Estimated
Sat 11:51:00 PM 38.6320 114.3817 49° Northeast  Level Estimated
Sat 11:52:00 PM 38.6932 114.4718 49° Northeast  Level Estimated
Sat 11:53:00 PM 38.7545 114.5622 49° Northeast  Level Estimated
Sat 11:54:00 PM 38.8156 114.6526 49° Northeast  Level Estimated
Sat 11:55:00 PM 38.8767 114.7432 49° Northeast  Level Estimated
Sat 11:56:00 PM 38.9377 114.8340 49° Northeast  Level Estimated
Sat 11:57:00 PM 38.9986 114.9250 49° Northeast  Level Estimated
Sat 11:58:00 PM 39.0594 115.0161 49° Northeast  Level Estimated
Sat 11:59:00 PM 39.1202 115.1073 49° Northeast  Level Estimated
Sun 12:00:00 AM 39.1810 115.1987 49° Northeast  Level Estimated
Sun 12:01:00 AM 39.2416 115.2903 49° Northeast  Level Estimated
Sun 12:02:00 AM 39.3022 115.3820 50° Northeast  Level Estimated
Sun 12:03:00 AM 39.3627 115.4739 50° Northeast  Level Estimated
Sun 12:04:00 AM 39.4231 115.5659 50° Northeast  Level Estimated
Sun 12:05:00 AM 39.4834 115.6581 50° Northeast  Level Estimated
Sun 12:06:00 AM 39.5437 115.7505 50° Northeast  Level Estimated
Sun 12:07:00 AM 39.6039 115.8430 50° Northeast  Level Estimated
Sun 12:08:00 AM 39.6641 115.9357 50° Northeast  Level Estimated
Sun 12:09:00 AM 39.7241 116.0285 50° Northeast  Level Estimated
Sun 12:10:00 AM 39.7841 116.1215 50° Northeast  Level Estimated
Sun 12:11:00 AM 39.8440 116.2147 50° Northeast  Level Estimated
Sun 12:12:00 AM 39.9039 116.3080 50° Northeast  Level Estimated
Sun 12:13:00 AM 39.9636 116.4015 50° Northeast  Level Estimated
Sun 12:14:00 AM 40.0233 116.4952 50° Northeast  Level Estimated

Login

Don't have an account? Register now (free) for customized features, flight alerts, and more!